Date,TemperatureHighF,TemperatureAvgF,TemperatureLowF,DewpointHighF,DewpointAvgF,DewpointLowF,HumidityHigh,HumidityAvg,HumidityLow,PressureMaxIn,PressureMinIn,WindSpeedMaxMPH,WindSpeedAvgMPH,GustSpeedMaxMPH,PrecipitationSumIn
2013-3-1,25.0,21.7,10.0,21.0,17.5,6.0,90,84,77,30.45,30.33,4,2,13,0.00
2013-3-2,27.0,13.9,2.0,16.0,7.8,-1.0,93,78,53,30.42,30.26,3,0,8,0.00
2013-3-3,28.0,13.6,-4.0,18.0,7.8,-8.0,90,78,54,30.27,30.15,3,0,8,0.00
2013-3-4,32.0,23.3,11.0,25.0,17.8,8.0,90,80,58,30.19,30.11,3,1,12,0.00
2013-3-5,30.0,26.5,22.0,25.0,20.6,16.0,90,79,66,30.32,30.10,4,1,13,0.00
2013-3-6,31.0,24.7,19.0,20.0,18.1,14.0,89,76,59,30.40,30.30,3,0,9,0.01
2013-3-7,30.0,21.3,11.0,21.0,16.1,8.0,91,81,64,30.47,30.38,3,0,7,0.01
2013-3-8,45.0,27.1,12.0,31.0,21.6,9.0,93,81,56,30.43,30.23,5,1,12,0.00
2013-3-9,36.0,31.6,25.0,35.0,30.6,24.0,98,96,93,30.22,29.79,1,0,5,0.28
2013-3-10,36.0,33.9,31.0,34.0,30.7,26.0,98,88,80,30.02,29.80,4,2,13,0.18
2013-3-11,31.0,27.2,24.0,27.0,24.3,22.0,92,89,81,29.97,29.77,6,2,14,0.01
2013-3-12,26.0,23.6,20.0,22.0,19.6,13.0,93,85,74,30.14,29.79,3,1,9,0.02
2013-3-13,35.0,23.9,14.0,14.0,10.5,7.0,77,58,33,30.35,30.14,2,0,6,0.03
2013-3-14,40.0,28.3,10.0,31.0,19.1,6.0,86,69,44,30.28,30.00,4,1,14,0.01
2013-3-15,36.0,27.1,19.0,30.0,21.1,16.0,89,78,68,30.08,29.98,4,2,12,0.00
2013-3-16,26.0,19.3,12.0,17.0,12.4,0.0,90,75,55,30.29,30.04,5,1,15,0.11
2013-3-17,25.0,13.7,0.0,16.0,5.8,-4.0,84,71,52,30.35,30.02,3,1,8,0.01
2013-3-18,33.0,26.8,21.0,30.0,21.3,12.0,90,80,56,30.03,29.54,5,2,14,0.08
2013-3-19,28.0,21.2,15.0,20.0,12.6,8.0,89,70,49,30.04,29.56,7,4,24,0.02
2013-3-20,22.0,16.8,11.0,12.0,9.2,6.0,86,72,60,30.15,30.04,4,2,11,0.01
2013-3-21,30.0,20.9,14.0,16.0,13.4,8.0,87,73,51,30.13,30.07,3,0,7,0.02
2013-3-22,33.0,21.9,9.0,27.0,17.2,6.0,91,82,70,30.15,30.08,3,0,7,0.01
2013-3-23,35.0,26.6,15.0,27.0,21.2,13.0,91,80,65,30.23,30.15,2,0,7,0.01
2013-3-24,32.0,27.8,23.0,29.0,23.8,19.0,91,85,78,30.19,30.07,4,1,14,0.01
2013-3-25,36.0,28.2,19.0,28.0,23.6,17.0,92,83,68,30.23,30.06,3,1,9,0.00
2013-3-26,41.0,34.2,29.0,29.0,26.3,24.0,88,73,51,30.29,30.22,1,0,5,0.00
2013-3-27,44.0,36.4,27.0,28.0,22.3,19.0,83,58,39,30.35,30.29,2,0,9,0.00
2013-3-28,46.0,32.9,19.0,28.0,20.8,16.0,87,65,36,30.37,30.29,2,0,5,0.00
2013-3-29,53.0,38.3,22.0,32.0,24.4,18.0,86,61,33,30.32,30.10,4,1,8,0.00
2013-3-30,49.0,41.9,36.0,42.0,36.0,-99.9,97,83,66,30.10,29.75,3,1,10,0.26
2013-3-31,41.0,35.1,27.0,33.0,24.1,13.0,81,65,48,30.02,29.68,5,2,13,0.01